sensor_id;sensor_type;location;lat;lon;timestamp;P1;durP1;ratioP1;P2;durP2;ratioP2
55483;SDS011;41345;51.704;5.146;2023-04-19T00:00:45;28.50;;;25.90;;
55483;SDS011;41345;51.704;5.146;2023-04-19T00:05:45;27.53;;;25.00;;
55483;SDS011;41345;51.704;5.146;2023-04-19T00:10:45;30.75;;;28.17;;
55483;SDS011;41345;51.704;5.146;2023-04-19T00:15:46;29.23;;;26.73;;
55483;SDS011;41345;51.704;5.146;2023-04-19T00:20:46;28.98;;;26.38;;
55483;SDS011;41345;51.704;5.146;2023-04-19T00:25:47;28.60;;;26.15;;
55483;SDS011;41345;51.704;5.146;2023-04-19T00:30:48;28.23;;;25.77;;
55483;SDS011;41345;51.704;5.146;2023-04-19T00:35:48;30.53;;;27.83;;
55483;SDS011;41345;51.704;5.146;2023-04-19T00:40:48;28.38;;;25.75;;
55483;SDS011;41345;51.704;5.146;2023-04-19T00:45:49;28.53;;;25.83;;
55483;SDS011;41345;51.704;5.146;2023-04-19T00:50:49;26.30;;;23.83;;
55483;SDS011;41345;51.704;5.146;2023-04-19T00:55:49;28.50;;;25.63;;
55483;SDS011;41345;51.704;5.146;2023-04-19T01:00:50;25.08;;;22.48;;
55483;SDS011;41345;51.704;5.146;2023-04-19T01:05:51;24.05;;;21.42;;
55483;SDS011;41345;51.704;5.146;2023-04-19T01:10:52;25.45;;;22.98;;
55483;SDS011;41345;51.704;5.146;2023-04-19T01:15:53;24.00;;;21.45;;
55483;SDS011;41345;51.704;5.146;2023-04-19T01:20:53;23.77;;;21.38;;
55483;SDS011;41345;51.704;5.146;2023-04-19T01:25:53;22.98;;;20.67;;
55483;SDS011;41345;51.704;5.146;2023-04-19T01:30:54;22.77;;;20.30;;
55483;SDS011;41345;51.704;5.146;2023-04-19T01:35:54;23.65;;;21.05;;
55483;SDS011;41345;51.704;5.146;2023-04-19T01:40:54;23.77;;;21.42;;
55483;SDS011;41345;51.704;5.146;2023-04-19T01:45:56;25.38;;;22.80;;
55483;SDS011;41345;51.704;5.146;2023-04-19T01:50:56;23.20;;;20.83;;
55483;SDS011;41345;51.704;5.146;2023-04-19T01:55:57;25.08;;;22.58;;
55483;SDS011;41345;51.704;5.146;2023-04-19T02:00:57;23.90;;;20.98;;
55483;SDS011;41345;51.704;5.146;2023-04-19T02:05:57;22.30;;;20.00;;
55483;SDS011;41345;51.704;5.146;2023-04-19T02:10:57;22.42;;;20.02;;
55483;SDS011;41345;51.704;5.146;2023-04-19T02:15:58;25.02;;;22.52;;
55483;SDS011;41345;51.704;5.146;2023-04-19T02:21:00;26.52;;;23.92;;
55483;SDS011;41345;51.704;5.146;2023-04-19T02:26:01;27.38;;;24.88;;
55483;SDS011;41345;51.704;5.146;2023-04-19T02:31:04;25.13;;;22.60;;
55483;SDS011;41345;51.704;5.146;2023-04-19T02:36:05;23.35;;;20.95;;
55483;SDS011;41345;51.704;5.146;2023-04-19T02:41:05;24.95;;;22.50;;
55483;SDS011;41345;51.704;5.146;2023-04-19T02:46:06;26.13;;;23.70;;
55483;SDS011;41345;51.704;5.146;2023-04-19T02:51:06;26.10;;;23.47;;
55483;SDS011;41345;51.704;5.146;2023-04-19T02:56:07;26.02;;;23.27;;
55483;SDS011;41345;51.704;5.146;2023-04-19T03:01:07;26.83;;;24.20;;
55483;SDS011;41345;51.704;5.146;2023-04-19T03:06:08;30.60;;;27.73;;
55483;SDS011;41345;51.704;5.146;2023-04-19T03:11:09;29.65;;;26.75;;
55483;SDS011;41345;51.704;5.146;2023-04-19T03:16:09;30.70;;;27.90;;
55483;SDS011;41345;51.704;5.146;2023-04-19T03:21:10;29.63;;;26.93;;
55483;SDS011;41345;51.704;5.146;2023-04-19T03:26:10;31.73;;;29.02;;
55483;SDS011;41345;51.704;5.146;2023-04-19T03:31:10;30.98;;;28.15;;
55483;SDS011;41345;51.704;5.146;2023-04-19T03:36:11;32.30;;;29.53;;
55483;SDS011;41345;51.704;5.146;2023-04-19T03:41:18;31.83;;;29.00;;
55483;SDS011;41345;51.704;5.146;2023-04-19T03:46:18;32.58;;;29.67;;
55483;SDS011;41345;51.704;5.146;2023-04-19T03:51:18;30.17;;;27.60;;
55483;SDS011;41345;51.704;5.146;2023-04-19T03:56:19;29.13;;;26.53;;
55483;SDS011;41345;51.704;5.146;2023-04-19T04:01:20;27.95;;;25.48;;
55483;SDS011;41345;51.704;5.146;2023-04-19T04:06:20;29.65;;;27.05;;
55483;SDS011;41345;51.704;5.146;2023-04-19T04:11:20;27.98;;;25.42;;
55483;SDS011;41345;51.704;5.146;2023-04-19T04:16:21;25.55;;;23.15;;
55483;SDS011;41345;51.704;5.146;2023-04-19T04:21:21;24.23;;;22.23;;
55483;SDS011;41345;51.704;5.146;2023-04-19T04:26:23;25.35;;;23.05;;
55483;SDS011;41345;51.704;5.146;2023-04-19T04:31:24;23.73;;;21.63;;
55483;SDS011;41345;51.704;5.146;2023-04-19T04:36:24;22.40;;;20.20;;
55483;SDS011;41345;51.704;5.146;2023-04-19T04:41:25;24.90;;;22.50;;
55483;SDS011;41345;51.704;5.146;2023-04-19T04:46:25;25.85;;;23.45;;
55483;SDS011;41345;51.704;5.146;2023-04-19T04:51:26;27.27;;;24.88;;
55483;SDS011;41345;51.704;5.146;2023-04-19T04:56:26;29.03;;;26.60;;
55483;SDS011;41345;51.704;5.146;2023-04-19T05:01:27;29.38;;;26.77;;
55483;SDS011;41345;51.704;5.146;2023-04-19T05:06:27;31.77;;;29.15;;
55483;SDS011;41345;51.704;5.146;2023-04-19T05:11:27;30.40;;;27.88;;
55483;SDS011;41345;51.704;5.146;2023-04-19T05:16:28;32.38;;;29.83;;
55483;SDS011;41345;51.704;5.146;2023-04-19T05:21:28;30.60;;;28.10;;
55483;SDS011;41345;51.704;5.146;2023-04-19T05:26:28;28.13;;;25.88;;
55483;SDS011;41345;51.704;5.146;2023-04-19T05:31:29;28.73;;;26.52;;
55483;SDS011;41345;51.704;5.146;2023-04-19T05:36:29;27.75;;;25.58;;
55483;SDS011;41345;51.704;5.146;2023-04-19T05:41:31;28.95;;;26.48;;
55483;SDS011;41345;51.704;5.146;2023-04-19T05:46:31;27.75;;;25.45;;
55483;SDS011;41345;51.704;5.146;2023-04-19T05:51:31;20.52;;;18.48;;
55483;SDS011;41345;51.704;5.146;2023-04-19T05:56:31;16.88;;;15.25;;
55483;SDS011;41345;51.704;5.146;2023-04-19T06:01:32;15.50;;;13.80;;
55483;SDS011;41345;51.704;5.146;2023-04-19T06:06:32;16.70;;;12.63;;
55483;SDS011;41345;51.704;5.146;2023-04-19T06:11:32;15.05;;;10.93;;
55483;SDS011;41345;51.704;5.146;2023-04-19T06:16:33;13.35;;;8.93;;
55483;SDS011;41345;51.704;5.146;2023-04-19T06:21:33;12.63;;;7.97;;
55483;SDS011;41345;51.704;5.146;2023-04-19T06:26:34;12.50;;;8.63;;
55483;SDS011;41345;51.704;5.146;2023-04-19T06:31:34;11.48;;;7.60;;
55483;SDS011;41345;51.704;5.146;2023-04-19T06:36:34;11.23;;;7.00;;
55483;SDS011;41345;51.704;5.146;2023-04-19T06:41:35;11.60;;;6.85;;
55483;SDS011;41345;51.704;5.146;2023-04-19T06:46:35;12.85;;;7.63;;
55483;SDS011;41345;51.704;5.146;2023-04-19T06:51:37;11.60;;;7.15;;
55483;SDS011;41345;51.704;5.146;2023-04-19T06:56:38;10.38;;;6.53;;
55483;SDS011;41345;51.704;5.146;2023-04-19T07:01:39;11.13;;;7.00;;
55483;SDS011;41345;51.704;5.146;2023-04-19T07:06:40;11.32;;;6.07;;
55483;SDS011;41345;51.704;5.146;2023-04-19T07:11:40;10.77;;;6.55;;
55483;SDS011;41345;51.704;5.146;2023-04-19T07:16:40;12.05;;;6.40;;
55483;SDS011;41345;51.704;5.146;2023-04-19T07:21:41;12.17;;;6.77;;
55483;SDS011;41345;51.704;5.146;2023-04-19T07:26:41;9.53;;;6.07;;
55483;SDS011;41345;51.704;5.146;2023-04-19T07:31:41;11.80;;;6.60;;
55483;SDS011;41345;51.704;5.146;2023-04-19T07:36:42;11.93;;;6.07;;
55483;SDS011;41345;51.704;5.146;2023-04-19T07:41:42;13.95;;;6.00;;
55483;SDS011;41345;51.704;5.146;2023-04-19T07:46:43;11.52;;;5.95;;
55483;SDS011;41345;51.704;5.146;2023-04-19T07:51:46;10.60;;;6.13;;
55483;SDS011;41345;51.704;5.146;2023-04-19T07:56:46;10.40;;;5.72;;
55483;SDS011;41345;51.704;5.146;2023-04-19T08:01:47;9.38;;;5.25;;
55483;SDS011;41345;51.704;5.146;2023-04-19T08:06:48;10.23;;;5.90;;
55483;SDS011;41345;51.704;5.146;2023-04-19T08:11:48;9.65;;;5.45;;
55483;SDS011;41345;51.704;5.146;2023-04-19T08:16:48;10.20;;;5.35;;
55483;SDS011;41345;51.704;5.146;2023-04-19T08:21:49;9.80;;;5.72;;
55483;SDS011;41345;51.704;5.146;2023-04-19T08:26:49;10.75;;;5.13;;
55483;SDS011;41345;51.704;5.146;2023-04-19T08:31:53;9.68;;;5.82;;
55483;SDS011;41345;51.704;5.146;2023-04-19T08:36:53;11.68;;;5.10;;
55483;SDS011;41345;51.704;5.146;2023-04-19T08:41:54;9.80;;;5.40;;
55483;SDS011;41345;51.704;5.146;2023-04-19T08:46:56;10.52;;;4.50;;
55483;SDS011;41345;51.704;5.146;2023-04-19T08:51:57;8.23;;;4.68;;
55483;SDS011;41345;51.704;5.146;2023-04-19T08:56:58;10.32;;;4.25;;
55483;SDS011;41345;51.704;5.146;2023-04-19T09:01:59;7.75;;;4.10;;
55483;SDS011;41345;51.704;5.146;2023-04-19T09:07:00;11.68;;;4.25;;
55483;SDS011;41345;51.704;5.146;2023-04-19T09:12:00;7.43;;;3.95;;
55483;SDS011;41345;51.704;5.146;2023-04-19T09:17:11;8.52;;;3.83;;
55483;SDS011;41345;51.704;5.146;2023-04-19T09:22:12;9.10;;;3.83;;
55483;SDS011;41345;51.704;5.146;2023-04-19T09:27:14;7.38;;;3.90;;
55483;SDS011;41345;51.704;5.146;2023-04-19T09:32:15;7.57;;;3.95;;
55483;SDS011;41345;51.704;5.146;2023-04-19T09:37:16;6.93;;;3.50;;
55483;SDS011;41345;51.704;5.146;2023-04-19T09:42:16;9.10;;;3.70;;
55483;SDS011;41345;51.704;5.146;2023-04-19T09:47:21;7.88;;;3.35;;
55483;SDS011;41345;51.704;5.146;2023-04-19T09:52:23;9.60;;;3.88;;
55483;SDS011;41345;51.704;5.146;2023-04-19T09:57:23;6.83;;;3.57;;
55483;SDS011;41345;51.704;5.146;2023-04-19T10:02:23;8.82;;;3.72;;
55483;SDS011;41345;51.704;5.146;2023-04-19T10:07:24;9.85;;;3.03;;
55483;SDS011;41345;51.704;5.146;2023-04-19T10:12:25;5.55;;;2.70;;
55483;SDS011;41345;51.704;5.146;2023-04-19T10:17:26;7.85;;;2.85;;
55483;SDS011;41345;51.704;5.146;2023-04-19T10:22:26;5.90;;;2.35;;
55483;SDS011;41345;51.704;5.146;2023-04-19T10:27:27;8.15;;;2.30;;
55483;SDS011;41345;51.704;5.146;2023-04-19T10:32:50;6.43;;;2.22;;
55483;SDS011;41345;51.704;5.146;2023-04-19T10:38:07;5.50;;;2.10;;
55483;SDS011;41345;51.704;5.146;2023-04-19T10:43:14;5.82;;;2.60;;
55483;SDS011;41345;51.704;5.146;2023-04-19T10:49:15;5.05;;;1.80;;
55483;SDS011;41345;51.704;5.146;2023-04-19T11:03:59;6.65;;;2.25;;
55483;SDS011;41345;51.704;5.146;2023-04-19T11:08:59;3.53;;;2.20;;
55483;SDS011;41345;51.704;5.146;2023-04-19T11:14:02;4.38;;;2.20;;
55483;SDS011;41345;51.704;5.146;2023-04-19T11:19:03;6.15;;;2.25;;
55483;SDS011;41345;51.704;5.146;2023-04-19T11:24:09;6.32;;;2.53;;
55483;SDS011;41345;51.704;5.146;2023-04-19T11:29:09;6.22;;;2.42;;
55483;SDS011;41345;51.704;5.146;2023-04-19T11:34:10;5.07;;;2.53;;
55483;SDS011;41345;51.704;5.146;2023-04-19T11:39:10;5.88;;;2.58;;
55483;SDS011;41345;51.704;5.146;2023-04-19T11:44:17;3.70;;;1.97;;
55483;SDS011;41345;51.704;5.146;2023-04-19T11:49:30;6.18;;;2.22;;
55483;SDS011;41345;51.704;5.146;2023-04-19T11:54:31;6.45;;;2.13;;
55483;SDS011;41345;51.704;5.146;2023-04-19T11:59:32;6.50;;;2.15;;
55483;SDS011;41345;51.704;5.146;2023-04-19T12:04:33;6.20;;;2.33;;
55483;SDS011;41345;51.704;5.146;2023-04-19T12:09:34;5.18;;;2.47;;
55483;SDS011;41345;51.704;5.146;2023-04-19T12:14:35;5.45;;;2.58;;
55483;SDS011;41345;51.704;5.146;2023-04-19T12:19:36;6.00;;;2.50;;
55483;SDS011;41345;51.704;5.146;2023-04-19T12:24:37;3.92;;;2.20;;
55483;SDS011;41345;51.704;5.146;2023-04-19T12:29:38;5.45;;;2.05;;
55483;SDS011;41345;51.704;5.146;2023-04-19T12:34:38;6.10;;;2.25;;
55483;SDS011;41345;51.704;5.146;2023-04-19T12:39:38;4.97;;;2.30;;
55483;SDS011;41345;51.704;5.146;2023-04-19T12:44:39;5.87;;;2.50;;
55483;SDS011;41345;51.704;5.146;2023-04-19T12:49:39;8.05;;;2.38;;
55483;SDS011;41345;51.704;5.146;2023-04-19T12:54:40;4.43;;;2.30;;
55483;SDS011;41345;51.704;5.146;2023-04-19T12:59:40;3.65;;;2.13;;
55483;SDS011;41345;51.704;5.146;2023-04-19T13:04:40;7.90;;;2.40;;
55483;SDS011;41345;51.704;5.146;2023-04-19T13:09:41;5.38;;;2.33;;
55483;SDS011;41345;51.704;5.146;2023-04-19T13:14:41;6.88;;;2.30;;
55483;SDS011;41345;51.704;5.146;2023-04-19T13:19:42;6.13;;;2.13;;
55483;SDS011;41345;51.704;5.146;2023-04-19T13:24:42;9.88;;;2.35;;
55483;SDS011;41345;51.704;5.146;2023-04-19T13:29:43;4.25;;;2.50;;
55483;SDS011;41345;51.704;5.146;2023-04-19T13:34:43;5.03;;;1.90;;
55483;SDS011;41345;51.704;5.146;2023-04-19T13:39:43;5.47;;;1.88;;
55483;SDS011;41345;51.704;5.146;2023-04-19T13:44:44;4.15;;;2.20;;
55483;SDS011;41345;51.704;5.146;2023-04-19T13:49:45;6.20;;;2.17;;
55483;SDS011;41345;51.704;5.146;2023-04-19T13:54:51;6.13;;;2.42;;
55483;SDS011;41345;51.704;5.146;2023-04-19T13:59:51;4.13;;;2.00;;
55483;SDS011;41345;51.704;5.146;2023-04-19T14:04:51;5.07;;;2.50;;
55483;SDS011;41345;51.704;5.146;2023-04-19T14:09:51;8.83;;;3.03;;
55483;SDS011;41345;51.704;5.146;2023-04-19T14:14:52;10.02;;;3.15;;
55483;SDS011;41345;51.704;5.146;2023-04-19T14:19:52;7.30;;;3.03;;
55483;SDS011;41345;51.704;5.146;2023-04-19T14:24:52;5.93;;;3.38;;
55483;SDS011;41345;51.704;5.146;2023-04-19T14:29:53;8.25;;;3.03;;
55483;SDS011;41345;51.704;5.146;2023-04-19T14:34:53;6.82;;;3.22;;
55483;SDS011;41345;51.704;5.146;2023-04-19T14:39:54;5.93;;;3.17;;
55483;SDS011;41345;51.704;5.146;2023-04-19T14:44:56;5.78;;;2.90;;
55483;SDS011;41345;51.704;5.146;2023-04-19T14:49:56;7.72;;;3.00;;
55483;SDS011;41345;51.704;5.146;2023-04-19T14:54:57;6.17;;;2.90;;
55483;SDS011;41345;51.704;5.146;2023-04-19T14:59:58;6.78;;;2.53;;
55483;SDS011;41345;51.704;5.146;2023-04-19T15:05:00;6.47;;;3.08;;
55483;SDS011;41345;51.704;5.146;2023-04-19T15:10:00;6.93;;;2.87;;
55483;SDS011;41345;51.704;5.146;2023-04-19T15:15:00;5.10;;;2.78;;
55483;SDS011;41345;51.704;5.146;2023-04-19T15:20:01;7.10;;;2.90;;
55483;SDS011;41345;51.704;5.146;2023-04-19T15:25:01;7.90;;;2.78;;
55483;SDS011;41345;51.704;5.146;2023-04-19T15:30:03;9.10;;;2.72;;
55483;SDS011;41345;51.704;5.146;2023-04-19T15:35:03;5.88;;;2.42;;
55483;SDS011;41345;51.704;5.146;2023-04-19T15:40:03;6.97;;;2.60;;
55483;SDS011;41345;51.704;5.146;2023-04-19T15:45:05;4.80;;;2.45;;
55483;SDS011;41345;51.704;5.146;2023-04-19T15:50:06;4.03;;;2.45;;
55483;SDS011;41345;51.704;5.146;2023-04-19T15:55:06;4.88;;;2.50;;
55483;SDS011;41345;51.704;5.146;2023-04-19T16:00:07;5.88;;;2.90;;
55483;SDS011;41345;51.704;5.146;2023-04-19T16:05:08;7.55;;;2.90;;
55483;SDS011;41345;51.704;5.146;2023-04-19T16:10:09;5.53;;;2.90;;
55483;SDS011;41345;51.704;5.146;2023-04-19T16:15:09;6.63;;;2.90;;
55483;SDS011;41345;51.704;5.146;2023-04-19T16:20:10;5.45;;;2.83;;
55483;SDS011;41345;51.704;5.146;2023-04-19T16:25:10;8.43;;;3.28;;
55483;SDS011;41345;51.704;5.146;2023-04-19T16:30:12;5.28;;;2.75;;
55483;SDS011;41345;51.704;5.146;2023-04-19T16:35:12;7.45;;;2.92;;
55483;SDS011;41345;51.704;5.146;2023-04-19T16:40:13;8.03;;;2.80;;
55483;SDS011;41345;51.704;5.146;2023-04-19T16:45:14;5.10;;;2.58;;
55483;SDS011;41345;51.704;5.146;2023-04-19T16:50:14;6.15;;;2.75;;
55483;SDS011;41345;51.704;5.146;2023-04-19T16:55:14;7.20;;;2.97;;
55483;SDS011;41345;51.704;5.146;2023-04-19T17:00:15;6.68;;;2.85;;
55483;SDS011;41345;51.704;5.146;2023-04-19T17:05:15;6.78;;;3.00;;
55483;SDS011;41345;51.704;5.146;2023-04-19T17:10:16;5.90;;;3.37;;
55483;SDS011;41345;51.704;5.146;2023-04-19T17:15:17;6.50;;;3.10;;
55483;SDS011;41345;51.704;5.146;2023-04-19T17:20:17;5.57;;;3.20;;
55483;SDS011;41345;51.704;5.146;2023-04-19T17:25:17;6.87;;;3.10;;
55483;SDS011;41345;51.704;5.146;2023-04-19T17:30:18;6.93;;;3.42;;
55483;SDS011;41345;51.704;5.146;2023-04-19T17:35:18;7.40;;;3.20;;
55483;SDS011;41345;51.704;5.146;2023-04-19T17:40:19;4.97;;;2.60;;
55483;SDS011;41345;51.704;5.146;2023-04-19T17:45:20;5.00;;;2.60;;
55483;SDS011;41345;51.704;5.146;2023-04-19T17:50:20;5.80;;;2.72;;
55483;SDS011;41345;51.704;5.146;2023-04-19T17:55:21;6.38;;;2.60;;
55483;SDS011;41345;51.704;5.146;2023-04-19T18:00:21;5.30;;;2.60;;
55483;SDS011;41345;51.704;5.146;2023-04-19T18:05:21;6.00;;;2.50;;
55483;SDS011;41345;51.704;5.146;2023-04-19T18:10:22;6.13;;;2.60;;
55483;SDS011;41345;51.704;5.146;2023-04-19T18:15:22;4.93;;;2.40;;
55483;SDS011;41345;51.704;5.146;2023-04-19T18:20:22;5.63;;;2.67;;
55483;SDS011;41345;51.704;5.146;2023-04-19T18:25:23;4.60;;;2.53;;
55483;SDS011;41345;51.704;5.146;2023-04-19T18:30:23;6.43;;;2.67;;
55483;SDS011;41345;51.704;5.146;2023-04-19T18:35:23;4.25;;;2.40;;
55483;SDS011;41345;51.704;5.146;2023-04-19T18:40:24;8.93;;;2.88;;
55483;SDS011;41345;51.704;5.146;2023-04-19T18:45:24;5.15;;;2.40;;
55483;SDS011;41345;51.704;5.146;2023-04-19T18:50:25;5.43;;;2.65;;
55483;SDS011;41345;51.704;5.146;2023-04-19T18:55:25;5.57;;;2.87;;
55483;SDS011;41345;51.704;5.146;2023-04-19T19:00:25;7.00;;;2.40;;
55483;SDS011;41345;51.704;5.146;2023-04-19T19:05:26;6.78;;;2.80;;
55483;SDS011;41345;51.704;5.146;2023-04-19T19:10:26;4.78;;;2.58;;
55483;SDS011;41345;51.704;5.146;2023-04-19T19:15:26;4.50;;;2.22;;
55483;SDS011;41345;51.704;5.146;2023-04-19T19:20:27;9.02;;;2.58;;
55483;SDS011;41345;51.704;5.146;2023-04-19T19:25:27;5.65;;;2.53;;
55483;SDS011;41345;51.704;5.146;2023-04-19T19:30:27;7.90;;;3.10;;
55483;SDS011;41345;51.704;5.146;2023-04-19T19:40:32;8.30;;;2.30;;
55483;SDS011;41345;51.704;5.146;2023-04-19T19:45:33;5.77;;;2.50;;
55483;SDS011;41345;51.704;5.146;2023-04-19T19:50:33;7.50;;;2.55;;
55483;SDS011;41345;51.704;5.146;2023-04-19T19:55:33;4.72;;;2.42;;
55483;SDS011;41345;51.704;5.146;2023-04-19T20:00:34;7.05;;;2.63;;
55483;SDS011;41345;51.704;5.146;2023-04-19T20:05:35;8.73;;;3.00;;
55483;SDS011;41345;51.704;5.146;2023-04-19T20:10:36;6.90;;;2.80;;
55483;SDS011;41345;51.704;5.146;2023-04-19T20:15:36;5.93;;;2.58;;
55483;SDS011;41345;51.704;5.146;2023-04-19T20:20:36;7.30;;;3.37;;
55483;SDS011;41345;51.704;5.146;2023-04-19T20:25:37;8.30;;;3.20;;
55483;SDS011;41345;51.704;5.146;2023-04-19T20:30:37;6.40;;;3.13;;
55483;SDS011;41345;51.704;5.146;2023-04-19T20:35:38;6.28;;;3.10;;
55483;SDS011;41345;51.704;5.146;2023-04-19T20:40:38;8.85;;;3.20;;
55483;SDS011;41345;51.704;5.146;2023-04-19T20:45:38;6.97;;;3.03;;
55483;SDS011;41345;51.704;5.146;2023-04-19T20:50:39;7.45;;;3.03;;
55483;SDS011;41345;51.704;5.146;2023-04-19T20:55:40;6.85;;;3.13;;
55483;SDS011;41345;51.704;5.146;2023-04-19T21:00:41;13.57;;;3.70;;
55483;SDS011;41345;51.704;5.146;2023-04-19T21:05:41;8.68;;;3.80;;
55483;SDS011;41345;51.704;5.146;2023-04-19T21:10:41;7.75;;;3.28;;
55483;SDS011;41345;51.704;5.146;2023-04-19T21:15:41;7.83;;;3.50;;
55483;SDS011;41345;51.704;5.146;2023-04-19T21:20:42;10.00;;;3.70;;
55483;SDS011;41345;51.704;5.146;2023-04-19T21:25:42;7.43;;;3.50;;
55483;SDS011;41345;51.704;5.146;2023-04-19T21:30:42;7.68;;;3.53;;
55483;SDS011;41345;51.704;5.146;2023-04-19T21:35:43;8.65;;;3.25;;
55483;SDS011;41345;51.704;5.146;2023-04-19T21:40:43;9.68;;;3.63;;
55483;SDS011;41345;51.704;5.146;2023-04-19T21:45:43;7.15;;;2.85;;
55483;SDS011;41345;51.704;5.146;2023-04-19T21:50:44;7.43;;;2.88;;
55483;SDS011;41345;51.704;5.146;2023-04-19T21:55:46;5.45;;;2.80;;
55483;SDS011;41345;51.704;5.146;2023-04-19T22:00:47;7.65;;;2.70;;
55483;SDS011;41345;51.704;5.146;2023-04-19T22:05:47;6.07;;;3.10;;
55483;SDS011;41345;51.704;5.146;2023-04-19T22:10:48;7.13;;;3.10;;
55483;SDS011;41345;51.704;5.146;2023-04-19T22:15:49;5.90;;;2.95;;
55483;SDS011;41345;51.704;5.146;2023-04-19T22:20:49;6.32;;;3.03;;
55483;SDS011;41345;51.704;5.146;2023-04-19T22:25:52;6.10;;;2.95;;
55483;SDS011;41345;51.704;5.146;2023-04-19T22:30:52;8.13;;;2.72;;
55483;SDS011;41345;51.704;5.146;2023-04-19T22:35:52;6.22;;;2.80;;
55483;SDS011;41345;51.704;5.146;2023-04-19T22:40:53;8.45;;;3.25;;
55483;SDS011;41345;51.704;5.146;2023-04-19T22:45:53;6.68;;;2.78;;
55483;SDS011;41345;51.704;5.146;2023-04-19T22:50:53;8.73;;;3.00;;
55483;SDS011;41345;51.704;5.146;2023-04-19T22:55:53;6.40;;;2.90;;
55483;SDS011;41345;51.704;5.146;2023-04-19T23:00:54;12.52;;;3.80;;
55483;SDS011;41345;51.704;5.146;2023-04-19T23:05:55;9.15;;;3.03;;
55483;SDS011;41345;51.704;5.146;2023-04-19T23:10:55;5.57;;;2.83;;
55483;SDS011;41345;51.704;5.146;2023-04-19T23:15:56;7.18;;;2.53;;
55483;SDS011;41345;51.704;5.146;2023-04-19T23:20:57;9.60;;;2.80;;
55483;SDS011;41345;51.704;5.146;2023-04-19T23:25:58;7.70;;;3.05;;
55483;SDS011;41345;51.704;5.146;2023-04-19T23:30:58;6.88;;;3.30;;
55483;SDS011;41345;51.704;5.146;2023-04-19T23:35:59;5.97;;;2.78;;
55483;SDS011;41345;51.704;5.146;2023-04-19T23:40:59;7.40;;;3.50;;
55483;SDS011;41345;51.704;5.146;2023-04-19T23:45:59;7.65;;;2.80;;
55483;SDS011;41345;51.704;5.146;2023-04-19T23:51:00;8.05;;;3.20;;
55483;SDS011;41345;51.704;5.146;2023-04-19T23:56:01;8.15;;;3.45;;
